Date,TemperatureHighF,TemperatureAvgF,TemperatureLowF,DewpointHighF,DewpointAvgF,DewpointLowF,HumidityHigh,HumidityAvg,HumidityLow,PressureMaxIn,PressureMinIn,WindSpeedMaxMPH,WindSpeedAvgMPH,GustSpeedMaxMPH,PrecipitationSumIn
2013-1-1,48.4,41.0,34.3,47.8,37.5,25.2,99,88,66,29.99,29.84,8,2,8,0.33
2013-1-2,43.7,39.1,36.0,43.2,38.0,34.1,99,96,91,30.00,29.80,8,2,8,0.01
2013-1-3,47.7,36.1,25.5,38.4,34.3,21.2,99,93,64,30.18,29.94,8,2,8,0.01
2013-1-4,51.1,24.9,20.5,30.1,19.6,16.6,88,81,34,30.24,30.13,15,2,15,0.00
2013-1-5,43.2,26.3,19.8,30.0,18.9,14.9,82,74,56,30.25,30.13,12,2,12,0.00
2013-1-6,50.5,38.3,33.3,39.2,32.2,26.8,92,79,65,30.10,29.95,12,3,12,0.00
2013-1-7,64.4,30.2,25.0,32.7,23.8,19.4,88,78,27,30.27,30.08,8,2,8,0.00
2013-1-8,60.6,35.3,23.9,43.9,29.7,21.2,97,82,45,30.31,30.18,7,2,7,0.00
2013-1-9,52.9,41.5,31.3,48.9,40.6,31.0,99,97,85,30.35,30.23,5,1,5,0.00
2013-1-10,47.1,44.8,43.0,46.9,44.2,42.3,99,98,97,30.35,30.31,4,1,4,0.00
2013-1-11,58.3,52.7,48.9,56.2,51.9,48.7,99,97,89,30.20,30.04,8,2,8,0.14
2013-1-12,78.8,58.7,51.8,64.2,55.7,51.3,99,90,61,30.07,29.97,7,3,7,0.01
2013-1-13,69.3,61.5,52.0,57.8,53.3,50.0,97,76,58,30.00,29.93,21,5,23,0.01
2013-1-14,58.6,54.1,45.1,58.0,53.6,44.3,99,98,97,30.08,29.93,9,2,9,1.03
2013-1-15,55.2,49.1,45.3,54.4,48.7,44.5,99,98,97,30.03,27.75,9,2,9,0.63
2013-1-16,56.8,49.0,47.1,56.6,48.7,46.9,99,99,97,27.79,27.69,7,1,7,0.12
2013-1-17,51.3,36.6,31.5,51.0,36.1,31.2,99,98,97,30.08,29.73,16,4,16,1.71
2013-1-18,57.9,33.1,26.2,41.3,28.8,23.6,99,85,48,30.36,30.08,14,3,14,0.01
2013-1-19,63.0,32.0,23.0,41.9,27.3,21.1,96,85,43,30.29,30.07,5,2,5,0.00
2013-1-20,68.2,38.4,26.8,40.0,28.2,22.1,88,70,22,30.07,29.97,15,3,15,0.00
2013-1-21,59.9,36.0,25.3,32.2,22.6,11.2,92,64,22,30.00,29.86,22,4,22,0.00
2013-1-22,49.5,27.3,18.7,14.0,4.5,-5.3,55,39,21,30.08,29.91,23,4,23,0.00
2013-1-23,55.8,27.9,16.9,26.4,13.9,3.8,79,57,26,30.20,29.91,13,2,13,0.00
2013-1-24,43.2,35.3,20.8,30.0,22.7,9.4,66,60,54,30.22,29.84,32,7,32,0.00
2013-1-25,45.0,24.3,19.6,43.3,11.5,6.0,96,58,45,30.23,29.89,8,2,8,0.04
2013-1-26,33.3,32.6,32.2,32.8,32.3,31.9,99,99,97,29.99,29.95,2,0,2,0.00
2013-1-27,83.3,52.5,37.9,48.7,42.6,36.7,99,77,22,30.12,29.95,0,0,0,21.90
2013-1-28,82.8,57.0,34.7,53.1,45.7,33.7,99,71,34,30.21,30.01,12,2,12,8.15
2013-1-29,73.2,52.1,37.9,56.7,47.3,37.7,99,86,48,30.10,29.83,12,3,12,0.06
2013-1-30,66.0,57.0,42.6,61.7,55.7,42.4,99,96,84,29.82,29.38,16,6,16,1.58
2013-1-31,50.4,38.7,29.3,41.9,20.7,15.6,96,50,29,29.86,29.44,29,8,29,0.01